Airfield :
LOGIN :

Register | Disclaimer

   EN    FR    IT 

 










Legend :    VFR   Marginal VFR   IFR   Intensive IFR   Very Intensive IFR
Visi :
Ceiling :
>= 8 km
>= 3000ft
5 to 8 km
1000 to 3000 ft
1500m to 5 km
500 to 1000 ft
800 to 1500m
200 to 500 ft
< 800m
< 200 ft
Symbols :   Thunderstorms  Fog  Heavy snow  Heavy precipitations  Wind > 20 kt
SIGMETs :     Misc.  Thunderstorms  Icing  Turbulence  Mountain Waves  Volcanic Ashes






- Airport Elevation : 490 ft
- IATA code : CHQ


LGSA - Ioannis Daskalogiannis

CURRENT METAR :
  • 120120Z 14016KT 9999 FEW025 SCT100 22/13 Q1012

EXPIRED METARs :
  • 120050Z 14010KT 9999 FEW025 SCT100 22/13 Q1012
  • 120020Z 13015KT 9999 FEW025 SCT100 21/13 Q1012
  • 112350Z 13014KT 9999 FEW025 SCT100 21/13 Q1012
  • 112320Z 13013KT 9999 FEW025 SCT100 21/13 Q1013
  • 112250Z 13013KT 9999 FEW025 SCT100 21/13 Q1013

TAF TAF LGSA
Valid from the 12 at 00:00 until the 13 at 00:00 UTC


112300Z 1200/1224 14015KT 9999 FEW020 SCT090
TEMPO 1206/1218 15015G25KT



MET'MAP, your aeronautical weather chart ! - Copyright ORBIFLY December 2007 - Disclaimer

ORBIFLY MET'MAP TEAM :

Programming & Development : Alexandra Zaïnal
Concept & Development : Baudouin d'Aumeries
Co-Development & Prog : Marc-Olivier Méhu
Technical & hardware support : Manuel Goepfert

Contact : metmap@orbifly.com




SOURCES & CREDITS :

   NOAA